Time;durP1;ratioP1;P1;durP2;ratioP2;P2;SDS_P1;SDS_P2;PMS_P1;PMS_P2;Temp;Humidity;BMP_temperature;BMP_pressure;BME280_temperature;BME280_humidity;BME280_pressure;Samples;Min_cycle;Max_cycle;Signal;HPM_P1;HPM_P2
2021/12/10 00:02:31;;;;;;;63.85;31.60;;;;;;;5.20;80.14;98913.75;4898479;29;20032;-38
2021/12/10 00:04:56;;;;;;;57.10;29.98;;;;;;;5.03;81.33;98907.91;4898311;29;20029;-38
2021/12/10 00:07:23;;;;;;;64.13;31.05;;;;;;;5.13;82.37;98917.31;4898233;29;20035;-38
2021/12/10 00:09:59;;;;;;;63.33;31.55;;;;;;;5.15;82.89;98923.22;4898275;29;20020;-38
2021/12/10 00:12:27;;;;;;;59.35;30.55;;;;;;;5.15;82.22;98907.41;4897942;29;20127;-38
2021/12/10 00:14:53;;;;;;;63.35;30.75;;;;;;;5.13;82.12;98922.59;4898207;29;20460;-38
2021/12/10 00:17:20;;;;;;;60.08;30.58;;;;;;;4.97;82.14;98899.91;4898032;29;20039;-38
2021/12/10 00:19:50;;;;;;;64.93;32.08;;;;;;;5.16;81.45;98909.00;4881117;29;20107;-38
2021/12/10 00:22:25;;;;;;;57.97;29.48;;;;;;;5.12;82.50;98911.22;4897945;29;20096;-39
2021/12/10 00:24:52;;;;;;;59.70;30.15;;;;;;;5.20;82.38;98919.03;4898223;29;20120;-38
2021/12/10 00:27:27;;;;;;;65.25;29.85;;;;;;;5.26;81.92;98917.44;4898007;29;20031;-38
2021/12/10 00:29:52;;;;;;;64.95;29.88;;;;;;;5.23;81.23;98908.06;4897790;29;20033;-38
2021/12/10 00:32:29;;;;;;;59.15;30.23;;;;;;;5.28;80.94;98881.94;4897753;29;20039;-38
2021/12/10 00:34:55;;;;;;;58.63;30.02;;;;;;;5.12;81.52;98884.84;4897757;29;20210;-37
2021/12/10 00:37:23;;;;;;;58.72;28.80;;;;;;;5.19;80.97;98882.28;4897607;29;20170;-37
2021/12/10 00:39:54;;;;;;;60.70;29.77;;;;;;;5.28;81.26;98879.31;4897468;29;20037;-37
2021/12/10 00:42:22;;;;;;;56.95;29.40;;;;;;;5.26;81.56;98864.69;4897167;29;20486;-38
2021/12/10 00:44:47;;;;;;;57.63;29.95;;;;;;;5.46;80.60;98867.47;4897523;29;20041;-37
2021/12/10 00:47:13;;;;;;;65.22;30.02;;;;;;;5.32;81.19;98863.09;4897614;29;20055;-39
2021/12/10 00:49:38;;;;;;;59.80;29.48;;;;;;;5.21;81.33;98857.31;4897581;29;20539;-37
2021/12/10 00:52:05;;;;;;;58.28;30.10;;;;;;;5.39;80.37;98875.34;4897188;29;20481;-37
2021/12/10 00:54:31;;;;;;;63.67;30.38;;;;;;;5.35;81.04;98883.81;4897364;29;20043;-37
2021/12/10 00:56:56;;;;;;;56.58;29.55;;;;;;;5.27;80.57;98896.16;4897111;29;20036;-37
2021/12/10 00:59:22;;;;;;;57.25;28.75;;;;;;;5.23;80.36;98859.78;4896905;29;20115;-40
2021/12/10 01:01:48;;;;;;;55.72;29.17;;;;;;;5.51;79.49;98870.34;4896953;29;20338;-38
2021/12/10 01:04:15;;;;;;;57.47;29.15;;;;;;;5.52;80.32;98865.88;4896858;29;20024;-38
2021/12/10 01:06:42;;;;;;;55.00;27.85;;;;;;;5.37;79.60;98856.25;4897067;29;20047;-38
2021/12/10 01:09:11;;;;;;;56.67;29.13;;;;;;;5.44;80.63;98883.47;4897256;29;20080;-38
2021/12/10 01:11:41;;;;;;;59.15;29.30;;;;;;;5.31;79.80;98858.81;4897014;29;20024;-38
2021/12/10 01:14:17;;;;;;;58.60;30.25;;;;;;;5.34;81.69;98855.81;4897093;29;20121;-38
2021/12/10 01:27:33;;;;;;;58.22;28.90;;;;;;;5.49;80.65;98825.69;4896635;29;20036;-38
2021/12/10 01:30:27;;;;;;;65.65;30.15;;;;;;;5.23;81.16;98820.22;4896269;29;20520;-38
2021/12/10 01:32:59;;;;;;;59.38;28.77;;;;;;;5.38;81.23;98817.47;4896449;29;20028;-39
2021/12/10 01:35:28;;;;;;;72.70;31.00;;;;;;;5.14;82.83;98816.06;4879569;29;20063;-38
2021/12/10 01:37:54;;;;;;;62.72;29.25;;;;;;;5.28;82.67;98794.88;4896255;29;20048;-38
2021/12/10 01:40:21;;;;;;;62.78;29.73;;;;;;;5.40;81.77;98795.16;4895101;29;20103;-38
2021/12/10 01:42:50;;;;;;;66.68;29.77;;;;;;;5.37;82.61;98818.47;4896006;29;20028;-38
2021/12/10 01:45:22;;;;;;;64.53;30.27;;;;;;;5.46;81.77;98820.81;4896250;29;20100;-38
2021/12/10 01:47:51;;;;;;;63.75;29.95;;;;;;;5.37;82.76;98779.72;4896285;29;20036;-38
2021/12/10 01:50:17;;;;;;;62.13;30.17;;;;;;;5.37;82.45;98777.09;4896104;29;20025;-38
2021/12/10 01:52:42;;;;;;;69.60;30.50;;;;;;;5.26;82.10;98785.53;4896211;29;20024;-38
2021/12/10 01:55:08;;;;;;;68.18;30.75;;;;;;;5.27;82.04;98758.97;4896024;29;20035;-39
2021/12/10 01:57:35;;;;;;;70.68;30.98;;;;;;;5.33;83.57;98757.38;4895843;29;20060;-39
2021/12/10 02:00:02;;;;;;;68.28;30.65;;;;;;;5.36;83.29;98762.25;4896126;29;20037;-37
2021/12/10 02:02:29;;;;;;;73.60;31.98;;;;;;;5.30;83.31;98770.94;4878889;29;20127;-38
2021/12/10 02:04:55;;;;;;;66.90;31.13;;;;;;;5.38;82.16;98739.13;4895449;29;20037;-38
2021/12/10 02:07:23;;;;;;;65.13;29.80;;;;;;;5.34;81.85;98706.22;4895638;29;20028;-38
2021/12/10 02:09:49;;;;;;;71.10;31.13;;;;;;;4.95;83.82;98747.19;4895556;29;20033;-38
2021/12/10 02:12:15;;;;;;;70.35;32.33;;;;;;;4.96;84.33;98725.06;4896028;29;20398;-39
2021/12/10 02:14:41;;;;;;;69.20;31.48;;;;;;;5.26;83.58;98712.47;4895758;29;20028;-39
2021/12/10 02:17:07;;;;;;;70.07;30.67;;;;;;;5.23;83.18;98733.16;4895886;29;20140;-38
2021/12/10 02:19:34;;;;;;;70.05;32.20;;;;;;;5.16;83.69;98705.91;4894895;29;20465;-38
2021/12/10 02:22:00;;;;;;;73.20;32.58;;;;;;;5.21;83.95;98714.88;4895606;29;20040;-38
2021/12/10 02:24:25;;;;;;;72.53;31.90;;;;;;;5.32;83.07;98713.53;4895660;29;20036;-39
2021/12/10 02:26:53;;;;;;;75.07;31.30;;;;;;;5.23;83.03;98690.94;4895882;29;20036;-38
2021/12/10 02:29:20;;;;;;;73.65;32.10;;;;;;;5.18;84.35;98715.28;4895734;29;20457;-38
2021/12/10 02:31:46;;;;;;;86.65;32.72;;;;;;;5.32;82.88;98741.75;4895709;29;20039;-38
2021/12/10 02:34:11;;;;;;;73.82;32.60;;;;;;;5.15;85.19;98693.75;4895120;29;20036;-38
2021/12/10 02:36:41;;;;;;;73.15;32.55;;;;;;;5.53;83.70;98714.47;4895337;29;20056;-39
2021/12/10 02:39:07;;;;;;;72.47;32.50;;;;;;;5.45;83.07;98700.41;4894165;29;20032;-38
2021/12/10 02:41:33;;;;;;;83.57;32.20;;;;;;;5.21;83.95;98724.63;4895730;29;20040;-38
2021/12/10 02:43:59;;;;;;;85.97;32.70;;;;;;;5.31;83.54;98703.97;4895821;29;20335;-39
2021/12/10 02:46:24;;;;;;;85.18;33.25;;;;;;;5.27;84.68;98724.69;4895416;29;20136;-38
2021/12/10 02:48:50;;;;;;;98.03;35.17;;;;;;;5.39;85.22;98706.47;4895578;29;20119;-38
2021/12/10 02:51:15;;;;;;;83.88;33.20;;;;;;;4.86;86.06;98696.41;4895273;29;20060;-38
2021/12/10 02:53:44;;;;;;;91.72;33.95;;;;;;;5.00;86.45;98725.50;4895054;29;20032;-38
2021/12/10 02:56:17;;;;;;;88.38;33.45;;;;;;;5.24;86.54;98724.25;4863722;29;20029;-38
2021/12/10 02:58:42;;;;;;;83.70;32.42;;;;;;;5.24;85.26;98735.59;4895283;29;20419;-39
2021/12/10 03:01:15;;;;;;;92.40;33.90;;;;;;;5.33;86.21;98707.25;4894802;29;20039;-39
2021/12/10 03:03:40;;;;;;;95.30;33.35;;;;;;;5.70;87.11;98730.78;4894545;29;20501;-38
2021/12/10 03:06:10;;;;;;;91.45;34.03;;;;;;;5.68;85.79;98736.25;4894520;29;20056;-39
2021/12/10 03:08:40;;;;;;;95.00;33.25;;;;;;;5.47;85.28;98748.53;4894876;29;20482;-39
2021/12/10 03:11:05;;;;;;;;;;;;;;;5.38;86.83;98747.03;4895483;29;20060;-37
2021/12/10 03:13:31;;;;;;;96.35;35.25;;;;;;;5.43;86.21;98754.41;4895240;29;20329;-38
2021/12/10 03:15:56;;;;;;;87.78;33.33;;;;;;;5.32;86.39;98770.78;4878487;29;20474;-38
2021/12/10 03:18:22;;;;;;;95.68;33.20;;;;;;;5.14;89.23;98707.94;4895463;29;20032;-38
2021/12/10 03:20:47;;;;;;;100.25;37.08;;;;;;;5.99;85.97;98722.56;4895286;29;20048;-38
2021/12/10 03:23:13;;;;;;;81.25;32.92;;;;;;;5.82;84.56;98737.13;4895597;29;20096;-38
2021/12/10 03:25:39;;;;;;;84.45;33.67;;;;;;;5.38;86.19;98702.19;4895357;29;20434;-38
2021/12/10 03:28:05;;;;;;;87.10;34.65;;;;;;;5.57;87.06;98723.59;4895307;29;20032;-38
2021/12/10 03:30:32;;;;;;;89.90;32.22;;;;;;;5.67;86.41;98747.81;4895544;29;20060;-38
2021/12/10 03:32:58;;;;;;;88.70;34.00;;;;;;;5.40;86.08;98702.81;4895731;29;20151;-39
2021/12/10 03:35:28;;;;;;;85.95;34.50;;;;;;;5.73;85.94;98733.00;4895344;29;20029;-38
2021/12/10 03:37:54;;;;;;;104.03;35.17;;;;;;;6.39;84.00;98695.44;4895327;29;20129;-38
2021/12/10 03:40:19;;;;;;;99.07;32.55;;;;;;;6.06;84.70;98701.47;4895246;29;20116;-38
2021/12/10 03:42:47;;;;;;;84.28;32.78;;;;;;;5.84;83.92;98688.38;4895100;29;20036;-38
2021/12/10 03:45:13;;;;;;;81.50;29.85;;;;;;;5.86;84.23;98707.50;4895046;29;20103;-38
2021/12/10 03:47:39;;;;;;;82.93;31.48;;;;;;;5.97;85.65;98697.38;4898305;29;20632;-38
2021/12/10 03:50:05;;;;;;;88.22;30.65;;;;;;;5.84;85.86;98688.38;4898566;29;20040;-38
2021/12/10 03:52:30;;;;;;;87.13;33.08;;;;;;;6.53;83.34;98673.28;4898457;29;20028;-38
2021/12/10 03:54:58;;;;;;;91.03;31.90;;;;;;;6.37;84.29;98661.28;4898709;29;20037;-38
2021/12/10 03:57:23;;;;;;;83.78;30.85;;;;;;;6.00;84.32;98660.84;4898360;29;20061;-38
2021/12/10 03:59:49;;;;;;;88.68;33.85;;;;;;;5.98;84.35;98676.06;4898106;29;20036;-38
2021/12/10 04:02:14;;;;;;;77.45;30.92;;;;;;;5.80;84.24;98642.25;4898259;29;20040;-38
2021/12/10 04:04:45;;;;;;;89.50;32.20;;;;;;;5.80;86.32;98646.72;4898326;29;20038;-38
2021/12/10 04:07:14;;;;;;;88.72;32.00;;;;;;;5.54;87.31;98652.72;4898663;29;20029;-39
2021/12/10 04:09:40;;;;;;;91.15;33.13;;;;;;;6.29;85.22;98584.06;4898328;29;20454;-37
2021/12/10 04:12:07;;;;;;;98.72;35.70;;;;;;;5.97;86.71;98604.97;4898258;29;20040;-38
2021/12/10 04:14:33;;;;;;;82.57;31.50;;;;;;;6.02;86.60;98608.63;4898152;29;20032;-38
2021/12/10 04:16:59;;;;;;;89.88;33.17;;;;;;;5.94;86.83;98600.03;4897347;29;20505;-38
2021/12/10 04:19:26;;;;;;;81.65;32.92;;;;;;;5.94;86.56;98616.72;4897963;29;20068;-38
2021/12/10 04:21:55;;;;;;;87.05;33.08;;;;;;;5.85;86.07;98613.44;4897998;29;20112;-39
2021/12/10 04:24:23;;;;;;;97.82;36.28;;;;;;;6.35;85.20;98641.38;4897712;29;20030;-38
2021/12/10 04:26:49;;;;;;;89.50;34.15;;;;;;;6.41;84.46;98627.34;4897787;29;20377;-38
2021/12/10 04:29:14;;;;;;;93.10;33.90;;;;;;;6.03;86.10;98622.63;4897798;29;20053;-38
2021/12/10 04:31:40;;;;;;;87.22;32.28;;;;;;;5.85;86.21;98637.19;4897795;29;20036;-39
2021/12/10 04:34:05;;;;;;;85.43;33.50;;;;;;;5.82;86.20;98627.03;4897783;29;20040;-39
2021/12/10 04:36:31;;;;;;;89.88;33.42;;;;;;;5.86;85.63;98654.69;4897821;29;20075;-37
2021/12/10 04:38:56;;;;;;;91.57;34.08;;;;;;;6.29;85.54;98677.34;4897992;29;20446;-39
2021/12/10 04:41:22;;;;;;;86.22;33.42;;;;;;;6.61;83.80;98646.66;4880883;29;20036;-38
2021/12/10 04:43:48;;;;;;;87.50;32.53;;;;;;;6.20;83.53;98670.63;4897358;29;20028;-39
2021/12/10 04:46:14;;;;;;;88.03;32.10;;;;;;;6.16;84.20;98691.34;4897726;29;20073;-38
2021/12/10 04:48:47;;;;;;;93.40;31.55;;;;;;;7.02;93.37;98697.66;4897504;29;20075;-38
2021/12/10 04:51:12;;;;;;;92.45;34.35;;;;;;;6.65;82.34;98698.09;4880577;29;20107;-38
2021/12/10 04:53:38;;;;;;;97.63;34.58;;;;;;;6.16;83.20;98688.69;4897441;29;20076;-38
2021/12/10 04:56:04;;;;;;;85.30;31.88;;;;;;;5.85;85.19;98676.00;4897259;29;20035;-37
2021/12/10 04:58:29;;;;;;;84.00;33.08;;;;;;;6.19;84.99;98708.63;4896420;29;20103;-38
2021/12/10 05:00:54;;;;;;;79.00;31.48;;;;;;;6.02;84.51;98695.78;4896974;29;20056;-38
2021/12/10 05:03:20;;;;;;;71.68;30.45;;;;;;;5.78;85.82;98691.81;4897025;29;20033;-38
2021/12/10 05:05:46;;;;;;;76.60;30.13;;;;;;;5.72;85.80;98699.72;4897048;29;20035;-37
2021/12/10 05:08:12;;;;;;;66.05;29.02;;;;;;;5.80;86.85;98697.69;4896896;29;20020;-40
2021/12/10 05:10:38;;;;;;;73.50;29.60;;;;;;;5.78;86.74;98685.72;4896641;29;20020;-39
2021/12/10 05:13:03;;;;;;;64.90;28.50;;;;;;;5.61;87.06;98691.34;4896765;29;20033;-39
2021/12/10 05:15:31;;;;;;;72.65;30.70;;;;;;;6.42;85.83;98713.53;4896486;29;20024;-39
2021/12/10 05:17:56;;;;;;;73.18;30.00;;;;;;;6.48;85.81;98720.66;4896814;29;20107;-38
2021/12/10 05:20:25;;;;;;;68.35;29.75;;;;;;;6.14;85.68;98687.28;4896567;29;20127;-37
2021/12/10 05:22:50;;;;;;;72.13;29.38;;;;;;;6.20;88.10;98716.34;4896909;29;20028;-38
2021/12/10 05:25:17;;;;;;;65.00;28.50;;;;;;;6.12;87.16;98710.44;4896432;29;20028;-39
2021/12/10 05:27:42;;;;;;;64.45;27.83;;;;;;;6.24;87.92;98727.31;4896681;29;20080;-40
2021/12/10 05:30:10;;;;;;;64.95;28.38;;;;;;;6.38;87.36;98744.03;4896724;29;20028;-39
2021/12/10 05:32:35;;;;;;;72.43;29.92;;;;;;;6.32;88.23;98742.16;4896565;29;20079;-38
2021/12/10 05:35:01;;;;;;;76.53;30.10;;;;;;;6.29;88.73;98761.88;4896768;29;20052;-39
2021/12/10 05:37:27;;;;;;;74.13;29.75;;;;;;;6.55;88.40;98732.06;4896450;29;20489;-38
2021/12/10 05:39:52;;;;;;;77.53;29.45;;;;;;;6.53;88.16;98747.31;4896347;29;20084;-41
2021/12/10 05:42:17;;;;;;;72.22;28.58;;;;;;;6.53;88.44;98734.09;4896444;29;20032;-40
2021/12/10 05:44:43;;;;;;;72.57;29.00;;;;;;;6.52;88.54;98756.25;4896564;29;20525;-41
2021/12/10 05:47:08;;;;;;;72.13;27.42;;;;;;;6.38;89.60;98721.06;4896462;29;20025;-41
2021/12/10 05:49:34;;;;;;;71.00;26.90;;;;;;;6.46;89.81;98714.75;4896110;29;20024;-41
2021/12/10 05:52:00;;;;;;;74.88;26.48;;;;;;;6.46;88.59;98749.13;4896211;29;20419;-42
2021/12/10 05:54:25;;;;;;;76.90;28.80;;;;;;;6.25;91.65;98731.59;4895963;29;20049;-40
2021/12/10 05:56:51;;;;;;;69.45;29.17;;;;;;;6.43;89.48;98752.16;4895949;29;20033;-40
2021/12/10 05:59:16;;;;;;;108.55;40.85;;;;;;;6.46;89.80;98747.28;4894404;29;20442;-40
2021/12/10 06:01:42;;;;;;;73.57;30.92;;;;;;;6.44;88.98;98751.16;4879245;29;20115;-40
2021/12/10 06:04:08;;;;;;;96.28;37.45;;;;;;;6.58;88.56;98746.69;4895515;29;20534;-41
2021/12/10 06:06:34;;;;;;;69.88;27.92;;;;;;;6.87;89.46;98761.34;4894181;29;20037;-41
2021/12/10 06:09:01;;;;;;;63.58;25.90;;;;;;;6.89;89.35;98759.31;4895436;29;20107;-41
2021/12/10 06:11:26;;;;;;;55.10;23.58;;;;;;;6.66;88.73;98770.28;4895591;29;20067;-40
2021/12/10 06:13:52;;;;;;;56.97;22.80;;;;;;;6.30;90.42;98768.78;4895445;29;20075;-41
2021/12/10 06:16:18;;;;;;;53.40;23.10;;;;;;;6.48;90.52;98765.59;4878761;29;20413;-41
2021/12/10 06:18:44;;;;;;;52.70;24.05;;;;;;;6.43;90.55;98754.78;4895578;29;20062;-42
2021/12/10 06:21:09;;;;;;;61.60;24.95;;;;;;;6.79;91.17;98751.78;4895529;29;20447;-41
2021/12/10 06:23:35;;;;;;;65.85;27.40;;;;;;;7.27;90.42;98736.69;4895575;29;20099;-41
2021/12/10 06:26:00;;;;;;;57.80;24.27;;;;;;;6.93;89.61;98731.47;4895318;29;20100;-42
2021/12/10 06:28:26;;;;;;;47.28;22.05;;;;;;;7.01;90.30;98746.31;4895288;29;20028;-40
2021/12/10 06:30:52;;;;;;;53.22;23.50;;;;;;;7.16;87.84;98756.66;4895361;29;20059;-42
2021/12/10 06:33:19;;;;;;;51.28;23.33;;;;;;;7.04;88.31;98756.47;4895291;29;20424;-41
2021/12/10 06:35:47;;;;;;;58.10;27.08;;;;;;;7.01;88.65;98747.13;4894844;29;20132;-40
2021/12/10 06:38:12;;;;;;;67.82;29.65;;;;;;;7.22;89.07;98732.84;4895181;29;20151;-42
2021/12/10 06:40:39;;;;;;;67.60;27.27;;;;;;;7.86;88.24;98733.06;4893915;29;20180;-42
2021/12/10 06:43:04;;;;;;;51.83;24.70;;;;;;;7.58;86.47;98714.84;4894949;29;20033;-42
2021/12/10 06:45:32;;;;;;;56.28;24.67;;;;;;;7.39;86.27;98722.63;4894231;29;20032;-43
2021/12/10 06:48:00;;;;;;;54.72;24.25;;;;;;;7.38;88.15;98721.00;4876619;29;20489;-40
2021/12/10 06:50:28;;;;;;;56.42;24.70;;;;;;;7.27;89.39;98718.97;4876468;29;20089;-43
2021/12/10 06:52:54;;;;;;;62.40;26.20;;;;;;;7.98;87.76;98719.97;4885120;29;20028;-41
2021/12/10 06:55:19;;;;;;;56.28;25.25;;;;;;;7.86;87.71;98734.91;4895322;29;20034;-55
2021/12/10 06:57:45;;;;;;;52.60;25.00;;;;;;;7.47;87.08;98734.03;4878425;29;20132;-52
2021/12/10 07:00:16;;;;;;;48.17;24.23;;;;;;;7.64;88.08;98725.41;4894951;29;20020;-54
2021/12/10 07:02:44;;;;;;;58.03;25.13;;;;;;;7.76;87.43;98712.31;4878106;29;20029;-52
2021/12/10 07:05:09;;;;;;;55.75;24.92;;;;;;;7.63;87.29;98712.38;4876509;29;20021;-52
2021/12/10 07:07:38;;;;;;;61.17;28.17;;;;;;;8.09;88.33;98721.13;4876362;29;20031;-51
2021/12/10 07:10:04;;;;;;;60.83;26.10;;;;;;;8.31;87.27;98711.03;4875223;29;20104;-53
2021/12/10 07:12:30;;;;;;;59.30;26.15;;;;;;;8.13;87.27;98712.56;4876178;29;20065;-53
2021/12/10 07:15:00;;;;;;;53.45;24.83;;;;;;;7.93;87.13;98706.53;4876208;29;20037;-51
2021/12/10 07:17:25;;;;;;;;;;;;;;;7.85;88.44;98712.09;4875486;29;20047;-52
2021/12/10 07:19:50;;;;;;;72.85;34.25;;;;;;;8.66;91.44;98706.09;4876212;29;19937;-53
2021/12/10 07:22:16;;;;;;;63.60;29.67;;;;;;;8.26;87.31;98710.84;4878756;29;20036;-50
2021/12/10 07:24:41;;;;;;;63.42;29.73;;;;;;;8.34;86.56;98726.47;4879665;29;20029;-53
2021/12/10 07:27:11;;;;;;;60.95;27.73;;;;;;;8.23;86.63;98736.75;4879617;29;20036;-52
2021/12/10 07:29:37;;;;;;;61.95;27.42;;;;;;;8.71;86.88;98748.72;4863453;29;20473;-52
2021/12/10 07:32:03;;;;;;;55.45;25.92;;;;;;;8.93;85.90;98773.03;4879527;29;20123;-50
2021/12/10 07:34:29;;;;;;;60.00;27.63;;;;;;;8.56;85.91;98795.94;4882564;29;20620;-39
2021/12/10 07:36:54;;;;;;;56.97;27.33;;;;;;;8.37;86.93;98802.94;4897326;29;20049;-39
2021/12/10 07:39:20;;;;;;;59.42;27.95;;;;;;;8.21;87.57;98791.81;4897854;29;20096;-39
2021/12/10 07:41:45;;;;;;;60.80;27.42;;;;;;;8.39;86.53;98780.50;4898256;29;20028;-40
2021/12/10 07:44:11;;;;;;;58.50;26.35;;;;;;;8.23;86.26;98781.81;4880488;29;20495;-53
2021/12/10 07:46:37;;;;;;;97.13;45.35;;;;;;;8.25;86.79;98784.25;4896164;29;20512;-51
2021/12/10 07:49:03;;;;;;;75.95;35.55;;;;;;;8.45;86.52;98804.56;4897577;29;20027;-53
2021/12/10 07:51:29;;;;;;;67.20;32.45;;;;;;;8.89;86.86;98774.50;4897333;29;20457;-52
2021/12/10 07:53:57;;;;;;;62.90;30.65;;;;;;;9.42;86.14;98791.00;4897250;29;20032;-53
2021/12/10 07:56:23;;;;;;;64.30;30.15;;;;;;;9.18;85.56;98788.97;4897572;29;20036;-51
2021/12/10 07:58:49;;;;;;;59.60;27.38;;;;;;;9.26;85.16;98763.16;4897517;29;20032;-51
2021/12/10 08:01:17;;;;;;;62.58;28.02;;;;;;;9.53;85.16;98769.81;4896998;29;20236;-50
2021/12/10 08:03:43;;;;;;;51.00;26.87;;;;;;;9.63;83.91;98774.63;4897380;29;20036;-53
2021/12/10 08:06:09;;;;;;;54.03;26.83;;;;;;;9.72;83.07;98775.97;4897307;29;20273;-51
2021/12/10 08:08:34;;;;;;;48.90;24.15;;;;;;;9.76;81.83;98801.06;4897082;29;20119;-50
2021/12/10 08:11:00;;;;;;;49.40;24.55;;;;;;;9.87;81.75;98791.53;4880620;29;20084;-50
2021/12/10 08:13:27;;;;;;;47.85;24.60;;;;;;;9.53;83.56;98775.16;4895764;29;20098;-53
2021/12/10 08:15:53;;;;;;;46.85;24.35;;;;;;;9.94;82.55;98799.47;4880589;29;20031;-50
2021/12/10 08:18:19;;;;;;;49.97;25.35;;;;;;;10.47;81.82;98784.69;4896730;29;20020;-52
2021/12/10 08:20:44;;;;;;;48.78;25.35;;;;;;;11.19;81.04;98773.97;4897120;29;20028;-49
2021/12/10 08:23:10;;;;;;;44.67;23.38;;;;;;;11.37;79.36;98767.72;4897921;29;20020;-40
2021/12/10 08:25:35;;;;;;;64.75;35.45;;;;;;;11.63;76.95;98766.44;4897264;29;20039;-38
2021/12/10 08:28:01;;;;;;;67.72;32.60;;;;;;;11.35;77.82;98759.16;4894336;29;20105;-51
2021/12/10 08:30:27;;;;;;;43.25;23.05;;;;;;;11.45;78.31;98763.91;4891564;29;20028;-52
2021/12/10 08:32:54;;;;;;;43.22;22.90;;;;;;;11.64;78.64;98760.03;4897076;29;20042;-52
2021/12/10 08:35:23;;;;;;;40.00;21.30;;;;;;;11.41;78.44;98765.41;4880193;29;20035;-53
2021/12/10 08:37:49;;;;;;;35.75;18.20;;;;;;;11.43;78.52;98755.31;4896813;29;20055;-53
2021/12/10 08:40:19;;;;;;;34.97;18.33;;;;;;;11.50;78.65;98766.69;4897023;29;20025;-52
2021/12/10 08:42:44;;;;;;;30.63;17.45;;;;;;;11.57;77.84;98766.53;4894278;29;20119;-53
2021/12/10 08:45:10;;;;;;;35.63;19.52;;;;;;;11.41;78.26;98766.22;4887325;29;20032;-53
2021/12/10 08:47:35;;;;;;;29.92;16.95;;;;;;;11.35;76.62;98759.97;4890439;29;20028;-51
2021/12/10 08:50:02;;;;;;;29.65;16.20;;;;;;;11.13;76.81;98756.25;4891402;29;20576;-52
2021/12/10 08:52:27;;;;;;;27.05;16.05;;;;;;;11.51;75.13;98760.28;4891883;29;20463;-52
2021/12/10 08:54:53;;;;;;;30.63;16.17;;;;;;;11.35;75.11;98721.88;4888186;29;20028;-53
2021/12/10 08:57:18;;;;;;;29.83;17.30;;;;;;;11.32;77.30;98741.75;4886615;29;20025;-52
2021/12/10 08:59:44;;;;;;;30.13;17.33;;;;;;;11.38;78.12;98764.00;4895000;29;20031;-49
2021/12/10 09:02:13;;;;;;;29.42;17.60;;;;;;;11.60;77.07;98763.41;4895872;29;20028;-54
2021/12/10 09:04:38;;;;;;;32.10;17.57;;;;;;;11.79;77.10;98753.44;4896415;29;20056;-50
2021/12/10 09:07:07;;;;;;;35.22;18.70;;;;;;;11.82;76.27;98753.78;4896530;29;20505;-58
2021/12/10 09:09:33;;;;;;;35.90;18.92;;;;;;;11.99;77.35;98737.84;4896625;29;20109;-52
2021/12/10 09:12:00;;;;;;;31.60;17.25;;;;;;;12.08;76.56;98728.44;4896151;29;20042;-52
2021/12/10 09:14:31;;;;;;;30.35;16.38;;;;;;;12.74;77.83;98717.31;4896360;29;20032;-52
2021/12/10 09:16:57;;;;;;;54.47;29.13;;;;;;;12.85;76.96;98719.09;4896460;29;20036;-56
2021/12/10 09:19:23;;;;;;;37.70;21.52;;;;;;;12.72;72.66;98722.09;4895930;29;20158;-50
2021/12/10 09:21:48;;;;;;;30.23;16.20;;;;;;;12.96;75.95;98722.72;4894599;29;20119;-50
2021/12/10 09:24:14;;;;;;;26.58;15.25;;;;;;;13.33;72.38;98721.41;4895730;29;20454;-51
2021/12/10 09:26:43;;;;;;;23.80;14.90;;;;;;;13.44;70.66;98721.31;4895553;29;20032;-50
2021/12/10 09:29:09;;;;;;;24.83;14.40;;;;;;;13.58;69.73;98716.41;4895919;29;20035;-49
2021/12/10 09:31:36;;;;;;;26.05;14.88;;;;;;;13.04;69.74;98708.97;4888842;29;20048;-51
2021/12/10 09:34:02;;;;;;;30.70;15.65;;;;;;;13.01;71.47;98714.78;4893730;29;20111;-49
2021/12/10 09:36:27;;;;;;;27.60;16.20;;;;;;;13.12;72.15;98742.47;4895477;29;20060;-49
2021/12/10 09:38:53;;;;;;;27.42;16.17;;;;;;;12.83;72.03;98744.41;4895692;29;20040;-50
2021/12/10 09:41:19;;;;;;;28.15;16.75;;;;;;;12.57;72.02;98711.16;4895515;29;20426;-50
2021/12/10 09:43:45;;;;;;;32.17;16.55;;;;;;;12.58;73.49;98728.78;4895320;29;20075;-50
2021/12/10 09:46:11;;;;;;;29.98;17.25;;;;;;;12.52;73.82;98719.88;4895794;29;20484;-49
2021/12/10 09:48:36;;;;;;;28.23;16.52;;;;;;;12.81;72.56;98691.28;4895457;29;20033;-49
2021/12/10 09:51:11;;;;;;;27.45;16.25;;;;;;;12.87;72.26;98705.47;4895059;29;20039;-51
2021/12/10 09:53:37;;;;;;;28.67;16.20;;;;;;;12.80;72.06;98724.34;4895264;29;20036;-49
2021/12/10 09:56:03;;;;;;;30.67;16.92;;;;;;;12.96;70.98;98697.88;4895261;29;20032;-49
2021/12/10 09:58:29;;;;;;;29.58;17.05;;;;;;;12.86;71.35;98698.53;4894897;29;20024;-48
2021/12/10 10:01:01;;;;;;;27.92;15.73;;;;;;;12.79;72.21;98692.53;4895298;29;20028;-49
2021/12/10 10:03:30;;;;;;;26.20;15.75;;;;;;;12.44;73.91;98697.06;4895009;29;20120;-49
2021/12/10 10:05:55;;;;;;;26.77;15.45;;;;;;;12.24;74.53;98697.53;4894996;29;20124;-49
2021/12/10 10:08:23;;;;;;;27.65;15.82;;;;;;;12.16;75.27;98710.44;4894844;29;20039;-51
2021/12/10 10:10:50;;;;;;;28.42;16.30;;;;;;;12.58;73.65;98708.22;4894957;29;20028;-49
2021/12/10 10:13:20;;;;;;;30.67;15.57;;;;;;;12.25;74.04;98709.81;4877950;29;20037;-50
2021/12/10 10:15:46;;;;;;;26.98;16.42;;;;;;;12.37;73.28;98701.72;4894725;29;20064;-49
2021/12/10 10:18:15;;;;;;;26.60;16.15;;;;;;;12.32;73.89;98701.66;4895400;29;20043;-51
2021/12/10 10:20:45;;;;;;;29.77;16.93;;;;;;;12.09;74.70;98703.41;4878091;29;20115;-52
2021/12/10 10:23:11;;;;;;;30.05;17.67;;;;;;;12.26;74.41;98705.28;4895021;29;20316;-52
2021/12/10 10:25:37;;;;;;;30.58;16.42;;;;;;;12.20;73.59;98698.22;4895063;29;20361;-49
2021/12/10 10:28:05;;;;;;;28.48;15.38;;;;;;;12.27;73.99;98690.91;4894851;29;20043;-50
2021/12/10 10:30:35;;;;;;;28.67;16.27;;;;;;;12.40;72.48;98698.59;4894801;29;20029;-52
2021/12/10 10:33:03;;;;;;;32.55;16.90;;;;;;;12.16;73.79;98691.75;4895165;29;20746;-48
2021/12/10 10:35:31;;;;;;;31.95;16.70;;;;;;;12.25;73.67;98680.47;4894804;29;20036;-49
2021/12/10 10:37:57;;;;;;;31.17;17.83;;;;;;;12.45;73.54;98665.84;4894609;29;20044;-49
2021/12/10 10:40:25;;;;;;;31.10;16.58;;;;;;;12.34;73.08;98659.56;4894826;29;20116;-51
2021/12/10 10:42:51;;;;;;;30.10;17.40;;;;;;;12.14;73.72;98660.00;4894857;29;20070;-47
2021/12/10 10:45:20;;;;;;;31.20;17.63;;;;;;;12.36;73.93;98637.97;4894945;29;20107;-47
2021/12/10 10:47:46;;;;;;;32.47;16.63;;;;;;;12.18;73.56;98625.66;4890199;29;20469;-50
2021/12/10 10:50:15;;;;;;;30.50;16.92;;;;;;;11.90;75.77;98622.78;4884167;29;20059;-48
2021/12/10 10:52:46;;;;;;;31.35;16.88;;;;;;;12.18;73.98;98629.13;4887602;29;20043;-49
2021/12/10 10:55:12;;;;;;;28.20;16.05;;;;;;;12.35;74.46;98617.66;4880056;29;20509;-50
2021/12/10 10:57:40;;;;;;;29.25;17.05;;;;;;;12.13;75.03;98610.38;4888041;29;20055;-50
2021/12/10 11:00:58;;;;;;;34.43;17.83;;;;;;;11.89;76.42;98591.00;4897742;29;20036;-52
2021/12/10 11:03:36;;;;;;;32.90;17.95;;;;;;;12.05;76.27;98590.25;4872872;29;20160;-52
2021/12/10 11:06:02;;;;;;;32.78;18.02;;;;;;;12.37;75.33;98595.03;4888143;29;20038;-49
2021/12/10 11:08:36;;;;;;;35.53;18.25;;;;;;;12.38;74.15;98618.00;4887275;29;20029;-48
2021/12/10 11:11:20;;;;;;;32.63;18.52;;;;;;;12.69;74.30;98610.44;4894531;29;20162;-52
2021/12/10 11:13:49;;;;;;;31.77;19.73;;;;;;;12.73;73.08;98602.78;4897901;29;20032;-49
2021/12/10 11:16:20;;;;;;;33.60;19.10;;;;;;;12.87;72.80;98590.66;4898091;29;20035;-49
2021/12/10 11:18:52;;;;;;;32.78;18.65;;;;;;;12.77;73.73;98603.88;4898206;29;20119;-50
2021/12/10 11:21:37;;;;;;;33.28;19.00;;;;;;;12.91;74.09;98621.19;4897786;29;20103;-50
2021/12/10 11:24:23;;;;;;;39.83;20.67;;;;;;;12.65;74.87;98599.44;4897877;29;20422;-52
2021/12/10 11:26:53;;;;;;;39.10;21.35;;;;;;;12.43;76.12;98601.25;4898192;29;20118;-50
2021/12/10 11:29:36;;;;;;;37.08;20.50;;;;;;;12.55;76.12;98623.34;4898418;29;20043;-51
2021/12/10 11:32:13;;;;;;;42.28;23.15;;;;;;;12.51;75.48;98614.19;4897978;29;20037;-51
2021/12/10 11:34:43;;;;;;;34.95;20.90;;;;;;;12.07;78.57;98600.66;4881473;29;20066;-50
2021/12/10 11:37:09;;;;;;;36.45;21.30;;;;;;;12.34;77.34;98619.53;4898102;29;20083;-49